Time;durP1;ratioP1;P1;durP2;ratioP2;P2;SDS_P1;SDS_P2;PMS_P1;PMS_P2;Temp;Humidity;BMP_temperature;BMP_pressure;BME280_temperature;BME280_humidity;BME280_pressure;Samples;Min_cycle;Max_cycle;Signal;HPM_P1;HPM_P2
2022/10/18 00:01:42;;;;;;;24.95;13.50;;;;;;;;;;5092869;28;20043;-74
2022/10/18 00:04:07;;;;;;;25.13;12.40;;;;;;;;;;5075063;28;20536;-73
2022/10/18 00:06:33;;;;;;;26.45;13.75;;;;;;;;;;5075354;28;20040;-74
2022/10/18 00:09:00;;;;;;;27.67;13.77;;;;;;;;;;5109041;28;20166;-74
2022/10/18 00:11:25;;;;;;;28.13;13.00;;;;;;;;;;5092294;28;20135;-74
2022/10/18 00:13:51;;;;;;;26.42;13.65;;;;;;;;;;5091528;28;20123;-73
2022/10/18 00:16:17;;;;;;;27.23;13.18;;;;;;;;;;5059449;28;20039;-74
2022/10/18 00:18:43;;;;;;;27.67;14.70;;;;;;;;;;5076074;28;20043;-74
2022/10/18 00:21:11;;;;;;;28.67;13.75;;;;;;;;;;5059556;28;20462;-73
2022/10/18 00:23:36;;;;;;;27.88;14.10;;;;;;;;;;5075582;28;20040;-73
2022/10/18 00:26:06;;;;;;;24.20;13.52;;;;;;;;;;5092616;28;20035;-73
2022/10/18 00:28:32;;;;;;;21.90;13.30;;;;;;;;;;5058870;28;20142;-73
2022/10/18 00:31:08;;;;;;;26.85;13.63;;;;;;;;;;5092273;28;20145;-73
2022/10/18 00:33:34;;;;;;;23.83;12.75;;;;;;;;;;5092595;28;20443;-73
2022/10/18 00:35:59;;;;;;;25.23;12.57;;;;;;;;;;5109669;28;20123;-74
2022/10/18 00:38:25;;;;;;;24.83;13.13;;;;;;;;;;5109401;28;20055;-72
2022/10/18 00:40:50;;;;;;;22.63;12.13;;;;;;;;;;5075543;28;20047;-72
2022/10/18 00:43:17;;;;;;;23.05;12.80;;;;;;;;;;5090939;28;20542;-72
2022/10/18 00:45:42;;;;;;;19.25;11.80;;;;;;;;;;5091243;28;20401;-72
2022/10/18 00:48:08;;;;;;;26.45;12.43;;;;;;;;;;5091297;28;20127;-72
2022/10/18 00:50:34;;;;;;;20.30;11.82;;;;;;;;;;5091247;28;20363;-71
2022/10/18 00:53:02;;;;;;;18.85;11.65;;;;;;;;;;5091856;28;20038;-72
2022/10/18 00:55:30;;;;;;;22.15;10.82;;;;;;;;;;5092213;28;20067;-72
2022/10/18 00:57:56;;;;;;;23.50;11.50;;;;;;;;;;5091811;28;20043;-73
2022/10/18 01:00:21;;;;;;;18.63;10.82;;;;;;;;;;5075221;28;20028;-71
2022/10/18 01:02:47;;;;;;;20.77;10.60;;;;;;;;;;5091963;28;20173;-71
2022/10/18 01:05:15;;;;;;;22.27;11.57;;;;;;;;;;5058545;28;20410;-72
2022/10/18 01:08:09;;;;;;;22.48;10.23;;;;;;;;;;5091753;28;20123;-71
2022/10/18 01:10:44;;;;;;;23.02;10.63;;;;;;;;;;4989300;28;20621;-72
2022/10/18 01:13:10;;;;;;;17.80;10.90;;;;;;;;;;5092564;28;20134;-71
2022/10/18 01:15:54;;;;;;;16.40;9.70;;;;;;;;;;5075630;28;20078;-72
2022/10/18 01:18:36;;;;;;;19.83;11.40;;;;;;;;;;5078388;28;20485;-72
2022/10/18 01:21:13;;;;;;;21.95;11.35;;;;;;;;;;5113753;28;20043;-73
2022/10/18 01:23:47;;;;;;;21.55;10.85;;;;;;;;;;5111934;28;20189;-72
2022/10/18 01:26:13;;;;;;;20.10;11.30;;;;;;;;;;5058193;28;20466;-72
2022/10/18 01:28:57;;;;;;;28.08;11.65;;;;;;;;;;5057911;28;20061;-72
2022/10/18 01:31:29;;;;;;;19.88;11.23;;;;;;;;;;5075393;28;20104;-72
2022/10/18 01:34:01;;;;;;;21.75;11.32;;;;;;;;;;5091785;28;20061;-73
2022/10/18 01:36:26;;;;;;;24.17;11.70;;;;;;;;;;5058233;28;20130;-73
2022/10/18 01:38:53;;;;;;;21.35;11.68;;;;;;;;;;5058410;28;20216;-72
2022/10/18 01:41:21;;;;;;;21.73;12.20;;;;;;;;;;5057624;28;20501;-72
2022/10/18 01:43:49;;;;;;;23.13;11.43;;;;;;;;;;5091075;28;20185;-74
2022/10/18 01:46:17;;;;;;;21.85;11.57;;;;;;;;;;5090503;28;20209;-72
2022/10/18 01:48:43;;;;;;;18.38;11.13;;;;;;;;;;5091404;28;20036;-72
2022/10/18 01:51:09;;;;;;;28.15;11.98;;;;;;;;;;5091126;28;20050;-71
2022/10/18 01:53:34;;;;;;;23.50;11.68;;;;;;;;;;5057481;28;20024;-71
2022/10/18 01:56:09;;;;;;;23.30;11.40;;;;;;;;;;5107997;28;20040;-72
2022/10/18 01:58:34;;;;;;;21.73;11.20;;;;;;;;;;5090891;28;20048;-72
2022/10/18 02:01:16;;;;;;;21.85;10.98;;;;;;;;;;5091124;28;20074;-72
2022/10/18 02:03:44;;;;;;;22.85;10.75;;;;;;;;;;5057832;28;20128;-70
2022/10/18 02:06:18;;;;;;;17.42;9.82;;;;;;;;;;5092727;28;20043;-68
2022/10/18 02:09:03;;;;;;;17.27;10.25;;;;;;;;;;5074465;28;20381;-72
2022/10/18 02:11:30;;;;;;;24.25;10.68;;;;;;;;;;5090857;28;20028;-72
2022/10/18 02:13:59;;;;;;;19.67;10.57;;;;;;;;;;5091048;28;20430;-72
2022/10/18 02:16:27;;;;;;;15.60;9.88;;;;;;;;;;5108198;28;20040;-71
2022/10/18 02:19:22;;;;;;;17.00;10.27;;;;;;;;;;5091645;28;20035;-71
2022/10/18 02:21:48;;;;;;;20.05;10.30;;;;;;;;;;5056531;28;20130;-73
2022/10/18 02:24:14;;;;;;;21.02;10.50;;;;;;;;;;5091417;28;20150;-74
2022/10/18 02:26:40;;;;;;;19.42;10.18;;;;;;;;;;5090395;28;20562;-74
2022/10/18 02:29:07;;;;;;;20.05;10.20;;;;;;;;;;5089285;28;20114;-74
2022/10/18 02:31:43;;;;;;;21.25;9.68;;;;;;;;;;5088708;28;20036;-73
2022/10/18 02:34:22;;;;;;;18.48;10.10;;;;;;;;;;5088965;28;20040;-74
2022/10/18 02:36:52;;;;;;;17.92;9.80;;;;;;;;;;5088182;28;20470;-71
2022/10/18 02:39:20;;;;;;;20.25;9.95;;;;;;;;;;5088397;28;20044;-71
2022/10/18 02:41:46;;;;;;;17.77;9.90;;;;;;;;;;5088487;28;20262;-71
2022/10/18 02:44:11;;;;;;;19.38;10.48;;;;;;;;;;5091879;28;20486;-71
2022/10/18 02:46:38;;;;;;;21.50;9.60;;;;;;;;;;5109602;28;20040;-71
2022/10/18 02:49:03;;;;;;;18.75;10.23;;;;;;;;;;5092342;28;20036;-71
2022/10/18 02:51:29;;;;;;;15.32;9.57;;;;;;;;;;5076142;28;20385;-71
2022/10/18 02:53:54;;;;;;;18.80;10.05;;;;;;;;;;5091179;28;20044;-73
2022/10/18 02:56:20;;;;;;;16.63;9.75;;;;;;;;;;5073701;28;20046;-73
2022/10/18 02:58:46;;;;;;;16.52;9.82;;;;;;;;;;5093849;28;20504;-72
2022/10/18 03:01:11;;;;;;;15.95;9.23;;;;;;;;;;5094439;28;20082;-71
2022/10/18 03:03:38;;;;;;;18.52;9.45;;;;;;;;;;5095540;28;20126;-71
2022/10/18 03:06:04;;;;;;;19.80;9.40;;;;;;;;;;5062343;28;20126;-70
2022/10/18 03:08:29;;;;;;;16.52;9.45;;;;;;;;;;5095833;28;20067;-70
2022/10/18 03:10:55;;;;;;;17.83;9.32;;;;;;;;;;5061799;28;20067;-71
2022/10/18 03:13:20;;;;;;;16.15;9.15;;;;;;;;;;5081162;28;20538;-74
2022/10/18 03:15:47;;;;;;;14.25;9.05;;;;;;;;;;5064686;28;20473;-74
2022/10/18 03:18:12;;;;;;;18.08;9.32;;;;;;;;;;5080232;28;20050;-70
2022/10/18 03:20:38;;;;;;;19.23;9.30;;;;;;;;;;5096228;28;20486;-74
2022/10/18 03:23:03;;;;;;;22.42;9.38;;;;;;;;;;5095556;28;20040;-74
2022/10/18 03:25:29;;;;;;;16.63;8.90;;;;;;;;;;5060610;28;20032;-73
2022/10/18 03:27:54;;;;;;;18.58;9.63;;;;;;;;;;5094178;28;20036;-74
2022/10/18 03:30:20;;;;;;;22.70;10.00;;;;;;;;;;5094501;28;20131;-74
2022/10/18 03:32:45;;;;;;;19.42;10.13;;;;;;;;;;5062415;28;20454;-75
2022/10/18 03:35:11;;;;;;;17.88;8.85;;;;;;;;;;5094708;28;20123;-75
2022/10/18 03:37:37;;;;;;;19.48;9.73;;;;;;;;;;5095404;28;20390;-73
2022/10/18 03:40:03;;;;;;;20.30;9.98;;;;;;;;;;5060929;28;20055;-73
2022/10/18 03:42:28;;;;;;;22.52;10.07;;;;;;;;;;5094114;28;20036;-73
2022/10/18 03:44:54;;;;;;;20.48;10.48;;;;;;;;;;5060003;28;20075;-72
2022/10/18 03:47:19;;;;;;;16.80;8.82;;;;;;;;;;5076608;28;20032;-72
2022/10/18 03:49:45;;;;;;;19.67;10.48;;;;;;;;;;5059854;28;20074;-72
2022/10/18 03:52:11;;;;;;;19.08;9.77;;;;;;;;;;5076625;28;20061;-72
2022/10/18 03:54:36;;;;;;;19.85;10.18;;;;;;;;;;5060158;28;20032;-72
2022/10/18 03:57:02;;;;;;;22.60;9.80;;;;;;;;;;5093889;28;20471;-72
2022/10/18 03:59:27;;;;;;;19.63;10.73;;;;;;;;;;5095233;28;20032;-72
2022/10/18 04:01:54;;;;;;;22.05;10.43;;;;;;;;;;5093562;28;20059;-73
2022/10/18 04:04:19;;;;;;;20.08;10.90;;;;;;;;;;5076254;28;20425;-73
2022/10/18 04:06:45;;;;;;;24.35;11.00;;;;;;;;;;5092475;28;20366;-74
2022/10/18 04:09:10;;;;;;;20.45;11.10;;;;;;;;;;5093168;28;20028;-73
2022/10/18 04:11:36;;;;;;;22.92;11.57;;;;;;;;;;5092530;28;20100;-72
2022/10/18 04:14:02;;;;;;;23.77;12.02;;;;;;;;;;5059055;28;20473;-71
2022/10/18 04:16:27;;;;;;;22.98;11.38;;;;;;;;;;5092425;28;20485;-72
2022/10/18 04:18:53;;;;;;;26.67;11.27;;;;;;;;;;5058797;28;20047;-73
2022/10/18 04:21:18;;;;;;;21.67;12.27;;;;;;;;;;5092103;28;20036;-72
2022/10/18 04:23:46;;;;;;;21.52;11.00;;;;;;;;;;5075435;28;20036;-72
2022/10/18 04:26:15;;;;;;;20.58;12.07;;;;;;;;;;5108987;28;20127;-73
2022/10/18 04:28:41;;;;;;;19.85;11.57;;;;;;;;;;5075658;28;20123;-71
2022/10/18 04:31:08;;;;;;;25.45;12.25;;;;;;;;;;5092457;28;20035;-73
2022/10/18 04:33:34;;;;;;;20.27;11.75;;;;;;;;;;5059068;28;20126;-70
2022/10/18 04:35:59;;;;;;;23.58;11.30;;;;;;;;;;5092364;28;20135;-72
2022/10/18 04:38:25;;;;;;;23.67;11.82;;;;;;;;;;5091914;28;20359;-71
2022/10/18 04:40:50;;;;;;;19.83;11.48;;;;;;;;;;5091815;28;20055;-71
2022/10/18 04:43:16;;;;;;;21.17;11.63;;;;;;;;;;5092259;28;20433;-71
2022/10/18 04:45:43;;;;;;;18.73;11.40;;;;;;;;;;5092159;28;20079;-69
2022/10/18 04:48:09;;;;;;;26.17;11.68;;;;;;;;;;5092108;28;20036;-71
2022/10/18 04:50:35;;;;;;;19.95;11.60;;;;;;;;;;5092132;28;20093;-71
2022/10/18 04:53:12;;;;;;;20.05;11.20;;;;;;;;;;5092139;28;20458;-70
2022/10/18 04:55:38;;;;;;;24.95;11.27;;;;;;;;;;5058082;28;20046;-70
2022/10/18 04:58:03;;;;;;;19.55;11.10;;;;;;;;;;5074697;28;20052;-70
2022/10/18 05:00:29;;;;;;;21.27;10.55;;;;;;;;;;5091915;28;20497;-74
2022/10/18 05:02:56;;;;;;;21.83;11.55;;;;;;;;;;5051232;28;20031;-73
2022/10/18 05:05:22;;;;;;;22.08;11.88;;;;;;;;;;5072348;28;20092;-72
2022/10/18 05:07:48;;;;;;;24.83;11.82;;;;;;;;;;5073015;28;20036;-73
2022/10/18 05:10:13;;;;;;;20.63;10.80;;;;;;;;;;5074112;28;20101;-74
2022/10/18 05:12:39;;;;;;;21.52;11.02;;;;;;;;;;5091942;28;20058;-73
2022/10/18 05:15:04;;;;;;;26.33;11.27;;;;;;;;;;5073299;28;20044;-72
2022/10/18 05:17:30;;;;;;;20.58;10.23;;;;;;;;;;5106963;28;20054;-71
2022/10/18 05:19:55;;;;;;;19.45;10.90;;;;;;;;;;5072022;28;20588;-72
2022/10/18 05:22:21;;;;;;;26.42;12.07;;;;;;;;;;5072840;28;20039;-71
2022/10/18 05:24:46;;;;;;;26.95;11.40;;;;;;;;;;5071694;28;20351;-71
2022/10/18 05:27:12;;;;;;;23.17;12.32;;;;;;;;;;5056287;28;20466;-72
2022/10/18 05:29:38;;;;;;;21.42;10.63;;;;;;;;;;5089852;28;20062;-77
2022/10/18 05:32:03;;;;;;;18.00;10.27;;;;;;;;;;5090583;28;20496;-74
2022/10/18 05:34:30;;;;;;;20.90;10.25;;;;;;;;;;5089018;28;20043;-73
2022/10/18 05:36:56;;;;;;;21.65;11.30;;;;;;;;;;5056497;28;20057;-71
2022/10/18 05:39:22;;;;;;;24.10;11.02;;;;;;;;;;5106910;28;20115;-71
2022/10/18 05:41:48;;;;;;;23.52;11.10;;;;;;;;;;5072774;28;20039;-74
2022/10/18 05:44:15;;;;;;;21.38;11.18;;;;;;;;;;5088170;28;20084;-69
2022/10/18 05:46:40;;;;;;;23.63;10.73;;;;;;;;;;5060885;28;20075;-69
2022/10/18 05:49:06;;;;;;;21.77;10.93;;;;;;;;;;5069825;28;20154;-67
2022/10/18 05:51:32;;;;;;;18.73;10.50;;;;;;;;;;5052845;28;20056;-67
2022/10/18 05:53:57;;;;;;;22.85;10.65;;;;;;;;;;5035870;28;20093;-68
2022/10/18 05:56:23;;;;;;;21.58;11.27;;;;;;;;;;5069527;28;20391;-68
2022/10/18 05:58:49;;;;;;;25.77;10.90;;;;;;;;;;5052463;28;20493;-69
2022/10/18 06:01:15;;;;;;;23.25;10.52;;;;;;;;;;5052740;28;20032;-70
2022/10/18 06:03:40;;;;;;;22.10;10.52;;;;;;;;;;5053301;28;20131;-70
2022/10/18 06:06:07;;;;;;;19.38;11.23;;;;;;;;;;5054446;28;20488;-71
2022/10/18 06:08:33;;;;;;;22.92;11.75;;;;;;;;;;5038370;28;20051;-73
2022/10/18 06:10:59;;;;;;;26.50;11.10;;;;;;;;;;5055711;28;20073;-75
2022/10/18 06:13:25;;;;;;;21.80;11.40;;;;;;;;;;5056114;28;20066;-74
2022/10/18 06:15:54;;;;;;;25.17;11.15;;;;;;;;;;5036583;28;20067;-74
2022/10/18 06:18:19;;;;;;;19.33;10.00;;;;;;;;;;5052619;28;20044;-74
2022/10/18 06:20:45;;;;;;;19.10;10.90;;;;;;;;;;5035867;28;20378;-74
2022/10/18 06:23:11;;;;;;;23.27;11.68;;;;;;;;;;5052894;28;20395;-74
2022/10/18 06:25:37;;;;;;;18.38;10.50;;;;;;;;;;5069434;28;20044;-73
2022/10/18 06:28:03;;;;;;;31.95;11.30;;;;;;;;;;5036885;28;20032;-70
2022/10/18 06:30:29;;;;;;;23.98;11.68;;;;;;;;;;5036307;28;20051;-71
2022/10/18 06:32:57;;;;;;;28.85;10.93;;;;;;;;;;5055441;28;20477;-70
2022/10/18 06:35:23;;;;;;;19.60;10.05;;;;;;;;;;5056208;28;20048;-71
2022/10/18 06:37:49;;;;;;;23.27;10.45;;;;;;;;;;5055794;28;20391;-70
2022/10/18 06:40:14;;;;;;;19.83;10.93;;;;;;;;;;5055705;28;20039;-70
2022/10/18 06:42:41;;;;;;;28.25;12.07;;;;;;;;;;5056349;28;20066;-73
2022/10/18 06:45:07;;;;;;;24.25;11.70;;;;;;;;;;5039986;28;20122;-71
2022/10/18 06:47:32;;;;;;;24.55;12.57;;;;;;;;;;5039569;28;20544;-71
2022/10/18 06:49:58;;;;;;;32.42;14.90;;;;;;;;;;5039774;28;20048;-73
2022/10/18 06:52:24;;;;;;;35.17;13.90;;;;;;;;;;5073673;28;20136;-71
2022/10/18 06:54:51;;;;;;;34.00;14.10;;;;;;;;;;5072729;28;20045;-73
2022/10/18 06:57:16;;;;;;;29.48;14.35;;;;;;;;;;5072353;28;20051;-73
2022/10/18 06:59:42;;;;;;;39.53;16.17;;;;;;;;;;5039238;28;20024;-73
2022/10/18 07:02:15;;;;;;;48.13;19.55;;;;;;;;;;5073064;28;20056;-71
2022/10/18 07:04:41;;;;;;;47.50;20.20;;;;;;;;;;5039302;28;20029;-71
2022/10/18 07:07:07;;;;;;;41.63;19.33;;;;;;;;;;5072376;28;20036;-72
2022/10/18 07:09:32;;;;;;;46.70;19.08;;;;;;;;;;5055194;28;20036;-75
2022/10/18 07:11:58;;;;;;;50.63;22.02;;;;;;;;;;5079171;28;20036;-75
2022/10/18 07:14:26;;;;;;;49.13;20.25;;;;;;;;;;5072396;28;20470;-73
2022/10/18 07:16:53;;;;;;;43.97;18.85;;;;;;;;;;5088829;28;20040;-72
2022/10/18 07:19:19;;;;;;;48.17;18.13;;;;;;;;;;5072244;28;20032;-71
2022/10/18 07:21:45;;;;;;;54.38;20.30;;;;;;;;;;5055570;28;20113;-71
2022/10/18 07:24:10;;;;;;;50.85;19.73;;;;;;;;;;5074956;28;20091;-72
2022/10/18 07:26:36;;;;;;;55.60;20.92;;;;;;;;;;5092481;28;20494;-77
2022/10/18 07:29:06;;;;;;;45.78;19.15;;;;;;;;;;5092510;28;20100;-79
2022/10/18 07:31:32;;;;;;;44.65;18.83;;;;;;;;;;5092455;28;20047;-80
2022/10/18 07:33:58;;;;;;;52.97;24.00;;;;;;;;;;5092716;28;20043;-80
2022/10/18 07:36:24;;;;;;;61.30;26.02;;;;;;;;;;5077572;28;20063;-83
2022/10/18 07:38:50;;;;;;;59.20;26.40;;;;;;;;;;5095527;28;20490;-82
2022/10/18 07:41:16;;;;;;;59.92;28.38;;;;;;;;;;5095822;28;20124;-78
2022/10/18 07:43:44;;;;;;;71.00;27.98;;;;;;;;;;5075269;28;20166;-77
2022/10/18 07:46:10;;;;;;;69.53;28.13;;;;;;;;;;5083436;28;20493;-79
2022/10/18 07:48:36;;;;;;;61.03;25.65;;;;;;;;;;5051678;28;20056;-84
2022/10/18 07:51:02;;;;;;;69.20;27.95;;;;;;;;;;5072163;28;20036;-76
2022/10/18 07:53:28;;;;;;;55.33;25.08;;;;;;;;;;5038925;28;20466;-74
2022/10/18 07:56:01;;;;;;;60.00;24.00;;;;;;;;;;5075891;28;20047;-80
2022/10/18 07:58:26;;;;;;;52.60;22.75;;;;;;;;;;5041631;28;20048;-82
2022/10/18 08:00:52;;;;;;;57.03;24.40;;;;;;;;;;5069334;28;20046;-80
2022/10/18 08:03:17;;;;;;;37.80;19.33;;;;;;;;;;5092004;28;20055;-77
2022/10/18 08:05:49;;;;;;;43.50;19.33;;;;;;;;;;5074590;28;20036;-80
2022/10/18 08:08:15;;;;;;;37.15;18.10;;;;;;;;;;5109611;28;20035;-76
2022/10/18 08:10:40;;;;;;;40.88;17.90;;;;;;;;;;5077381;28;20036;-72
2022/10/18 08:13:06;;;;;;;40.53;17.95;;;;;;;;;;5070238;28;20040;-75
2022/10/18 08:15:31;;;;;;;42.60;18.27;;;;;;;;;;5054151;28;20528;-75
2022/10/18 08:17:57;;;;;;;54.25;17.77;;;;;;;;;;5072229;28;20040;-76
2022/10/18 08:20:22;;;;;;;50.55;20.80;;;;;;;;;;5072661;28;20036;-76
2022/10/18 08:22:51;;;;;;;39.58;18.33;;;;;;;;;;5087956;28;20135;-74
2022/10/18 08:25:16;;;;;;;52.38;20.02;;;;;;;;;;5072420;28;20131;-74
2022/10/18 08:27:42;;;;;;;54.13;21.67;;;;;;;;;;5054601;28;20115;-74
2022/10/18 08:30:08;;;;;;;68.30;21.08;;;;;;;;;;5055070;28;20060;-74
2022/10/18 08:32:34;;;;;;;50.97;19.75;;;;;;;;;;5082016;28;20123;-73
2022/10/18 08:34:59;;;;;;;52.72;20.25;;;;;;;;;;5071537;28;20135;-74
2022/10/18 08:37:25;;;;;;;58.70;23.25;;;;;;;;;;5070928;28;20043;-74
2022/10/18 08:39:50;;;;;;;87.05;23.05;;;;;;;;;;5053156;28;20033;-74
2022/10/18 08:42:34;;;;;;;76.00;24.45;;;;;;;;;;5065496;28;20047;-73
2022/10/18 08:45:00;;;;;;;71.13;25.30;;;;;;;;;;5088869;28;20051;-75
2022/10/18 08:47:47;;;;;;;64.82;24.88;;;;;;;;;;5089490;28;20043;-75
2022/10/18 08:50:20;;;;;;;54.05;21.42;;;;;;;;;;5090941;28;20121;-75
2022/10/18 08:52:56;;;;;;;55.47;22.92;;;;;;;;;;5089948;28;20042;-75
2022/10/18 08:55:37;;;;;;;66.70;24.85;;;;;;;;;;5072093;28;20048;-74
2022/10/18 08:58:07;;;;;;;55.85;22.00;;;;;;;;;;5073125;28;20040;-74
2022/10/18 09:00:35;;;;;;;63.35;24.02;;;;;;;;;;5090118;28;20038;-74
2022/10/18 09:03:01;;;;;;;63.60;24.65;;;;;;;;;;5090440;28;20129;-72
2022/10/18 09:05:30;;;;;;;59.97;23.98;;;;;;;;;;5091195;28;20441;-71
2022/10/18 09:08:08;;;;;;;65.68;25.00;;;;;;;;;;5073661;28;20032;-75
2022/10/18 09:10:43;;;;;;;63.88;25.35;;;;;;;;;;5073033;28;20132;-75
2022/10/18 09:13:18;;;;;;;59.38;24.52;;;;;;;;;;5089627;28;20474;-75
2022/10/18 09:15:57;;;;;;;49.13;22.70;;;;;;;;;;5090058;28;20065;-74
2022/10/18 09:18:32;;;;;;;57.63;23.77;;;;;;;;;;5089921;28;20482;-75
2022/10/18 09:20:59;;;;;;;43.38;19.65;;;;;;;;;;5090495;28;20036;-74
2022/10/18 09:23:27;;;;;;;51.13;21.50;;;;;;;;;;5108183;28;20040;-74
2022/10/18 09:26:00;;;;;;;54.58;22.90;;;;;;;;;;5091877;28;20036;-74
2022/10/18 09:28:26;;;;;;;;;;;;;;;;;;5092066;28;20048;-74
2022/10/18 09:30:56;;;;;;;48.65;21.20;;;;;;;;;;5075295;28;20350;-75
2022/10/18 09:33:40;;;;;;;41.90;18.55;;;;;;;;;;5073318;28;20039;-75
2022/10/18 09:36:12;;;;;;;37.63;18.65;;;;;;;;;;5090167;28;20043;-74
2022/10/18 09:38:44;;;;;;;49.30;22.17;;;;;;;;;;5090186;28;20048;-75
2022/10/18 09:41:14;;;;;;;44.72;20.67;;;;;;;;;;5089176;28;20078;-74
2022/10/18 09:43:45;;;;;;;41.78;19.70;;;;;;;;;;5072633;28;20058;-75
2022/10/18 09:46:12;;;;;;;41.95;20.63;;;;;;;;;;5072107;28;20043;-73
2022/10/18 09:48:50;;;;;;;39.05;19.23;;;;;;;;;;5055936;28;20054;-74
2022/10/18 09:51:20;;;;;;;45.75;20.65;;;;;;;;;;5073716;28;20032;-74
2022/10/18 09:53:55;;;;;;;46.75;20.27;;;;;;;;;;5092343;28;20078;-77
2022/10/18 09:56:25;;;;;;;57.00;23.90;;;;;;;;;;5094773;28;20067;-75
2022/10/18 09:58:51;;;;;;;44.83;21.00;;;;;;;;;;5100171;28;20046;-74
2022/10/18 10:01:24;;;;;;;53.08;21.88;;;;;;;;;;5109199;28;20036;-76
2022/10/18 10:03:49;;;;;;;44.85;19.55;;;;;;;;;;5094363;28;20234;-79
2022/10/18 10:06:28;;;;;;;30.52;15.82;;;;;;;;;;5076764;28;20506;-79
2022/10/18 10:09:14;;;;;;;36.78;17.02;;;;;;;;;;5094772;28;20508;-74
2022/10/18 10:11:44;;;;;;;38.28;17.77;;;;;;;;;;5093654;28;20131;-78
2022/10/18 10:14:14;;;;;;;43.75;19.83;;;;;;;;;;5093970;28;20131;-77
2022/10/18 10:16:48;;;;;;;41.38;20.33;;;;;;;;;;5110571;28;20061;-79
2022/10/18 10:19:18;;;;;;;29.45;16.42;;;;;;;;;;5060413;28;20389;-79
2022/10/18 10:21:45;;;;;;;33.75;18.65;;;;;;;;;;5110349;28;20435;-80
2022/10/18 10:24:34;;;;;;;36.30;19.45;;;;;;;;;;5064914;28;20070;-72
2022/10/18 10:27:02;;;;;;;35.08;19.00;;;;;;;;;;5083099;28;20040;-79
2022/10/18 10:29:42;;;;;;;36.60;19.75;;;;;;;;;;5060824;28;20036;-78
2022/10/18 10:32:10;;;;;;;42.72;19.55;;;;;;;;;;5077629;28;20031;-79
2022/10/18 10:34:36;;;;;;;42.47;21.58;;;;;;;;;;5076625;28;20051;-81
2022/10/18 10:37:04;;;;;;;48.60;22.92;;;;;;;;;;5061070;28;20040;-79
2022/10/18 10:39:29;;;;;;;44.85;22.20;;;;;;;;;;5094676;28;20058;-74
2022/10/18 10:41:56;;;;;;;48.03;22.98;;;;;;;;;;5110439;28;20432;-80
2022/10/18 10:44:23;;;;;;;48.22;23.30;;;;;;;;;;5111192;28;20413;-79
2022/10/18 10:46:49;;;;;;;56.28;26.90;;;;;;;;;;5076849;28;20147;-80
2022/10/18 10:49:34;;;;;;;55.97;26.05;;;;;;;;;;5094367;28;20055;-79
2022/10/18 10:52:02;;;;;;;58.05;28.52;;;;;;;;;;5076867;28;20042;-81
2022/10/18 10:54:34;;;;;;;65.18;29.05;;;;;;;;;;5052425;28;20078;-79
2022/10/18 10:56:59;;;;;;;60.58;28.40;;;;;;;;;;5071049;28;20377;-78
2022/10/18 10:59:30;;;;;;;68.35;31.15;;;;;;;;;;5057490;28;20040;-79
2022/10/18 11:02:16;;;;;;;64.15;30.50;;;;;;;;;;5082523;28;20063;-77
2022/10/18 11:04:43;;;;;;;51.33;26.65;;;;;;;;;;5080258;28;20104;-75
2022/10/18 11:07:08;;;;;;;60.25;30.45;;;;;;;;;;5075185;28;20036;-76
2022/10/18 11:10:03;;;;;;;60.63;30.05;;;;;;;;;;5047244;28;20090;-79
2022/10/18 11:12:53;;;;;;;75.25;33.55;;;;;;;;;;5034056;28;20127;-77
2022/10/18 11:15:24;;;;;;;93.38;37.42;;;;;;;;;;5076361;28;20032;-80
2022/10/18 11:17:56;;;;;;;81.03;34.67;;;;;;;;;;5094383;28;20138;-79
2022/10/18 11:20:25;;;;;;;64.30;31.98;;;;;;;;;;5061095;28;20032;-78
2022/10/18 11:22:51;;;;;;;86.97;38.03;;;;;;;;;;5111456;28;20140;-80
2022/10/18 11:25:16;;;;;;;65.25;34.10;;;;;;;;;;5060098;28;20526;-78
2022/10/18 11:27:47;;;;;;;76.10;34.97;;;;;;;;;;5075496;28;20501;-74
2022/10/18 11:30:13;;;;;;;;;;;;;;;;;;5092242;28;20032;-78
2022/10/18 11:32:47;;;;;;;62.60;31.60;;;;;;;;;;5075891;28;19912;-80
2022/10/18 11:35:12;;;;;;;70.57;30.88;;;;;;;;;;5109059;28;20040;-75
2022/10/18 11:37:57;;;;;;;59.17;31.85;;;;;;;;;;5075369;28;20127;-77
2022/10/18 11:40:22;;;;;;;70.38;34.78;;;;;;;;;;5059766;28;20043;-80
2022/10/18 11:42:56;;;;;;;70.47;34.30;;;;;;;;;;5051675;28;20079;-79
2022/10/18 11:45:34;;;;;;;73.63;33.55;;;;;;;;;;5075040;28;20058;-79
2022/10/18 11:48:18;;;;;;;64.05;32.35;;;;;;;;;;5082845;28;20101;-78
2022/10/18 11:50:52;;;;;;;59.08;32.50;;;;;;;;;;5072586;28;20375;-79
2022/10/18 11:53:43;;;;;;;62.85;33.30;;;;;;;;;;5064837;28;20077;-78
2022/10/18 11:56:18;;;;;;;61.83;31.45;;;;;;;;;;5089061;28;20098;-78
2022/10/18 11:58:55;;;;;;;61.50;31.90;;;;;;;;;;5082575;28;20653;-78
2022/10/18 12:01:31;;;;;;;54.10;28.45;;;;;;;;;;5072671;28;20051;-78
2022/10/18 12:04:01;;;;;;;56.40;30.45;;;;;;;;;;5038632;28;20439;-78
2022/10/18 12:06:32;;;;;;;38.85;23.00;;;;;;;;;;5071123;28;20043;-78
2022/10/18 12:09:02;;;;;;;40.08;23.35;;;;;;;;;;5071514;28;20083;-76
2022/10/18 12:11:28;;;;;;;53.65;28.95;;;;;;;;;;5070606;28;20494;-76
2022/10/18 12:13:57;;;;;;;50.53;26.33;;;;;;;;;;5075429;28;20048;-79
2022/10/18 12:16:26;;;;;;;34.83;22.52;;;;;;;;;;5080258;28;20416;-81
2022/10/18 12:18:56;;;;;;;47.47;26.85;;;;;;;;;;5043176;28;20134;-77
2022/10/18 12:21:23;;;;;;;45.60;25.13;;;;;;;;;;5080593;28;20470;-79
2022/10/18 12:23:55;;;;;;;38.15;23.33;;;;;;;;;;5094972;28;20028;-77
2022/10/18 12:26:21;;;;;;;50.25;25.65;;;;;;;;;;5081913;28;20069;-78
2022/10/18 12:28:52;;;;;;;44.47;24.98;;;;;;;;;;5056954;28;20497;-80
2022/10/18 12:31:18;;;;;;;40.75;24.67;;;;;;;;;;5062481;28;20032;-80
2022/10/18 12:33:45;;;;;;;45.05;26.38;;;;;;;;;;5068136;28;20454;-77
2022/10/18 12:36:20;;;;;;;36.45;22.38;;;;;;;;;;5070311;28;20034;-72
2022/10/18 12:38:50;;;;;;;45.70;24.50;;;;;;;;;;5054379;28;20037;-79
2022/10/18 12:41:24;;;;;;;35.80;22.20;;;;;;;;;;5083483;28;20032;-77
2022/10/18 12:43:51;;;;;;;36.92;22.10;;;;;;;;;;5088468;28;20035;-75
2022/10/18 12:46:16;;;;;;;33.90;20.73;;;;;;;;;;5062901;28;20028;-76
2022/10/18 12:48:44;;;;;;;35.15;21.15;;;;;;;;;;5077616;28;20119;-75
2022/10/18 12:51:17;;;;;;;32.25;21.15;;;;;;;;;;5078578;28;20551;-76
2022/10/18 12:53:53;;;;;;;33.15;19.25;;;;;;;;;;5078700;28;20805;-73
2022/10/18 12:56:28;;;;;;;26.33;17.98;;;;;;;;;;5083690;28;20043;-78
2022/10/18 12:59:12;;;;;;;33.60;19.95;;;;;;;;;;5083654;28;20042;-77
2022/10/18 13:01:50;;;;;;;29.45;18.83;;;;;;;;;;5073254;28;20031;-75
2022/10/18 13:04:26;;;;;;;25.48;15.30;;;;;;;;;;5072712;28;20028;-76
2022/10/18 13:06:58;;;;;;;28.13;16.55;;;;;;;;;;5085688;28;20044;-76
2022/10/18 13:09:25;;;;;;;24.23;15.05;;;;;;;;;;5048773;28;20040;-78
2022/10/18 13:12:09;;;;;;;27.77;17.40;;;;;;;;;;5095986;28;20469;-80
2022/10/18 13:14:53;;;;;;;26.67;16.13;;;;;;;;;;5090783;28;20044;-80
2022/10/18 13:17:19;;;;;;;26.65;16.48;;;;;;;;;;5091771;28;20466;-78
2022/10/18 13:19:52;;;;;;;21.48;15.60;;;;;;;;;;5075159;28;20054;-77
2022/10/18 13:22:18;;;;;;;24.70;16.10;;;;;;;;;;5066206;28;20041;-77
2022/10/18 13:24:46;;;;;;;22.08;14.68;;;;;;;;;;5073244;28;20097;-75
2022/10/18 13:27:23;;;;;;;22.67;15.38;;;;;;;;;;5091633;28;20536;-76
2022/10/18 13:30:07;;;;;;;23.95;15.35;;;;;;;;;;5090548;28;20044;-74
2022/10/18 13:32:35;;;;;;;21.48;14.98;;;;;;;;;;5090471;28;20470;-75
2022/10/18 13:35:01;;;;;;;25.10;14.43;;;;;;;;;;5072942;28;20067;-74
2022/10/18 13:37:29;;;;;;;23.02;13.77;;;;;;;;;;5089957;28;20085;-77
2022/10/18 13:40:33;;;;;;;21.73;13.95;;;;;;;;;;5089442;28;20131;-75
2022/10/18 13:43:19;;;;;;;21.05;13.13;;;;;;;;;;5018796;28;20135;-74
2022/10/18 13:45:53;;;;;;;21.45;12.90;;;;;;;;;;5068000;28;20410;-74
2022/10/18 13:48:30;;;;;;;22.02;13.50;;;;;;;;;;5082951;28;20047;-76
2022/10/18 13:50:59;;;;;;;21.50;12.88;;;;;;;;;;5073178;28;20104;-76
2022/10/18 13:53:34;;;;;;;19.50;13.50;;;;;;;;;;5052085;28;20066;-74
2022/10/18 13:56:16;;;;;;;23.65;13.15;;;;;;;;;;5089472;28;20044;-75
2022/10/18 13:59:08;;;;;;;22.45;14.75;;;;;;;;;;5084707;28;20032;-75
2022/10/18 14:01:46;;;;;;;21.83;13.63;;;;;;;;;;5066936;28;20076;-74
2022/10/18 14:04:18;;;;;;;21.23;13.77;;;;;;;;;;5036674;28;20040;-75
2022/10/18 14:06:45;;;;;;;17.48;12.48;;;;;;;;;;5084471;28;20036;-73
2022/10/18 14:09:15;;;;;;;20.33;12.63;;;;;;;;;;5036193;28;20422;-75
2022/10/18 14:11:40;;;;;;;20.38;13.93;;;;;;;;;;5048011;28;20043;-75
2022/10/18 14:14:37;;;;;;;23.08;13.35;;;;;;;;;;5068735;28;20036;-76
2022/10/18 14:17:02;;;;;;;20.75;13.57;;;;;;;;;;5060644;28;20040;-76
2022/10/18 14:19:28;;;;;;;20.88;13.95;;;;;;;;;;5068854;28;20063;-76
2022/10/18 14:21:57;;;;;;;18.67;13.68;;;;;;;;;;5098560;28;20110;-75
2022/10/18 14:24:25;;;;;;;19.30;13.10;;;;;;;;;;5088828;28;20059;-76
2022/10/18 14:27:16;;;;;;;18.88;12.27;;;;;;;;;;5086818;28;20052;-78
2022/10/18 14:29:41;;;;;;;11.63;8.57;;;;;;;;;;5070022;28;20033;-76
2022/10/18 14:32:19;;;;;;;10.13;7.75;;;;;;;;;;5060071;28;20040;-74